Time;durP1;ratioP1;P1;durP2;ratioP2;P2;SDS_P1;SDS_P2;PMS_P1;PMS_P2;Temp;Humidity;BMP_temperature;BMP_pressure;BME280_temperature;BME280_humidity;BME280_pressure;Samples;Min_cycle;Max_cycle;Signal;HPM_P1;HPM_P2
2021/03/29 00:00:53;;;;;;;1.80;1.60;;;9.70;99.90;;;;;;4836734;29;20861;-75
2021/03/29 00:03:19;;;;;;;1.50;1.40;;;9.70;99.90;;;;;;4835376;29;20509;-77
2021/03/29 00:05:44;;;;;;;3.78;1.70;;;9.80;99.90;;;;;;4834601;29;20418;-73
2021/03/29 00:08:12;;;;;;;1.60;1.50;;;9.80;99.90;;;;;;4838939;29;20422;-75
2021/03/29 00:10:38;;;;;;;1.37;1.27;;;9.80;99.90;;;;;;4865336;29;20492;-78
2021/03/29 00:13:04;;;;;;;2.00;1.60;;;9.80;99.90;;;;;;4859488;29;20418;-74
2021/03/29 00:15:32;;;;;;;3.33;1.67;;;9.80;99.90;;;;;;4829697;29;20414;-75
2021/03/29 00:17:58;;;;;;;1.73;1.40;;;9.80;99.90;;;;;;4849896;29;20414;-75
2021/03/29 00:20:26;;;;;;;1.65;1.55;;;9.80;99.90;;;;;;4836707;29;21007;-74
2021/03/29 00:22:53;;;;;;;2.13;1.55;;;9.80;99.90;;;;;;4815886;29;20409;-75
2021/03/29 00:25:20;;;;;;;2.08;1.50;;;9.80;99.90;;;;;;4851974;29;20433;-79
2021/03/29 00:27:45;;;;;;;1.73;1.63;;;9.80;99.90;;;;;;4820857;29;20422;-77
2021/03/29 00:30:14;;;;;;;1.70;1.60;;;9.80;99.90;;;;;;4841125;29;20904;-73
2021/03/29 00:32:41;;;;;;;2.20;1.40;;;9.80;99.90;;;;;;4835313;29;20430;-75
2021/03/29 00:35:07;;;;;;;1.45;1.35;;;9.90;99.90;;;;;;4822052;29;20410;-77
2021/03/29 00:37:32;;;;;;;1.43;1.33;;;9.80;99.90;;;;;;4850476;29;20505;-77
2021/03/29 00:39:58;;;;;;;2.30;1.43;;;9.80;99.90;;;;;;4837104;29;20534;-76
2021/03/29 00:42:24;;;;;;;1.70;1.60;;;9.80;99.90;;;;;;4857740;29;20426;-78
2021/03/29 00:44:50;;;;;;;1.90;1.52;;;9.80;99.90;;;;;;4839866;29;20943;-76
2021/03/29 00:47:16;;;;;;;1.77;1.43;;;9.90;99.90;;;;;;4839516;29;20426;-76
2021/03/29 00:49:41;;;;;;;1.70;1.60;;;9.80;99.90;;;;;;4854732;29;20466;-75
2021/03/29 00:52:07;;;;;;;2.33;1.50;;;9.80;99.90;;;;;;4859948;29;20879;-77
2021/03/29 00:54:34;;;;;;;1.60;1.50;;;9.80;99.90;;;;;;4838713;29;20414;-76
2021/03/29 00:57:00;;;;;;;1.75;1.55;;;9.90;99.90;;;;;;4855463;29;20421;-75
2021/03/29 00:59:26;;;;;;;3.05;1.40;;;9.80;99.90;;;;;;4857175;29;21565;-74
2021/03/29 01:01:52;;;;;;;1.55;1.45;;;9.90;99.90;;;;;;4837478;29;20487;-75
2021/03/29 01:04:17;;;;;;;1.60;1.50;;;9.80;99.90;;;;;;4841617;29;20393;-75
2021/03/29 01:06:46;;;;;;;1.50;1.40;;;9.80;99.90;;;;;;4839910;29;20413;-74
2021/03/29 01:09:25;;;;;;;3.42;1.75;;;9.90;99.90;;;;;;4839688;29;20406;-77
2021/03/29 01:11:53;;;;;;;2.47;1.70;;;9.90;99.90;;;;;;4842448;29;20410;-75
2021/03/29 01:14:26;;;;;;;1.87;1.70;;;9.80;99.90;;;;;;4838226;29;20410;-76
2021/03/29 01:17:11;;;;;;;2.78;1.30;;;9.80;99.90;;;;;;4855028;29;20417;-78
2021/03/29 01:19:45;;;;;;;1.65;1.55;;;9.90;99.90;;;;;;4854253;29;20951;-74
2021/03/29 01:22:15;;;;;;;1.60;1.50;;;9.90;99.90;;;;;;4852008;29;20575;-78
2021/03/29 01:24:51;;;;;;;1.50;1.40;;;9.90;99.90;;;;;;4821740;29;20435;-77
2021/03/29 01:27:18;;;;;;;1.30;1.20;;;9.90;99.90;;;;;;4837009;29;20503;-81
2021/03/29 01:29:43;;;;;;;1.60;1.50;;;9.90;99.90;;;;;;4845335;29;20455;-77
2021/03/29 01:32:09;;;;;;;2.30;1.50;;;9.90;99.90;;;;;;4838708;29;20422;-79
2021/03/29 01:34:36;;;;;;;1.60;1.50;;;9.90;99.90;;;;;;4853914;29;20486;-75
2021/03/29 01:37:02;;;;;;;1.33;1.23;;;10.00;99.90;;;;;;4838820;29;21105;-79
2021/03/29 01:39:28;;;;;;;2.53;1.65;;;9.90;99.90;;;;;;4839388;29;20417;-79
2021/03/29 01:41:54;;;;;;;1.50;1.40;;;9.90;99.90;;;;;;4824360;29;20506;-77
2021/03/29 01:44:20;;;;;;;1.30;1.20;;;9.90;99.90;;;;;;4839747;29;20403;-77
2021/03/29 01:46:45;;;;;;;2.20;1.37;;;9.90;99.90;;;;;;4854977;29;20987;-76
2021/03/29 01:49:11;;;;;;;1.77;1.67;;;9.90;99.90;;;;;;4829916;29;20776;-78
2021/03/29 01:51:37;;;;;;;1.50;1.40;;;9.90;99.90;;;;;;4830926;29;20914;-75
2021/03/29 01:54:03;;;;;;;1.40;1.30;;;9.90;99.90;;;;;;4853840;29;20406;-79
2021/03/29 01:56:28;;;;;;;1.67;1.57;;;9.90;99.90;;;;;;4839019;29;20915;-75
2021/03/29 01:58:54;;;;;;;1.40;1.35;;;9.90;99.90;;;;;;4853857;29;20398;-76
2021/03/29 02:01:20;;;;;;;1.47;1.37;;;9.90;99.90;;;;;;4831540;29;21032;-76
2021/03/29 02:03:45;;;;;;;1.40;1.30;;;9.90;99.90;;;;;;4823445;29;20422;-81
2021/03/29 02:06:11;;;;;;;1.80;1.70;;;9.90;99.90;;;;;;4802621;29;20419;-80
2021/03/29 02:08:38;;;;;;;1.90;1.43;;;9.90;99.90;;;;;;4857905;29;20413;-79
2021/03/29 02:11:04;;;;;;;1.05;1.05;;;9.90;99.90;;;;;;4845426;29;20502;-80
2021/03/29 02:13:34;;;;;;;3.60;1.35;;;9.90;99.90;;;;;;4825097;29;20455;-80
2021/03/29 02:16:11;;;;;;;1.77;1.50;;;9.90;99.90;;;;;;4841183;29;20424;-80
2021/03/29 02:18:42;;;;;;;1.48;1.38;;;9.90;99.90;;;;;;4864272;29;20410;-79
2021/03/29 02:21:18;;;;;;;2.55;1.42;;;9.90;99.90;;;;;;4822137;29;20494;-79
2021/03/29 02:23:49;;;;;;;1.40;1.30;;;9.90;99.90;;;;;;4821075;29;20477;-75
2021/03/29 02:26:16;;;;;;;2.07;1.60;;;9.90;99.90;;;;;;4850973;29;20431;-78
2021/03/29 02:28:42;;;;;;;2.15;1.50;;;9.90;99.90;;;;;;4842054;29;20423;-79
2021/03/29 02:31:07;;;;;;;1.87;1.73;;;9.90;99.90;;;;;;4830723;29;20412;-76
2021/03/29 02:33:33;;;;;;;3.60;1.50;;;9.90;99.90;;;;;;4840438;29;20912;-80
2021/03/29 02:35:59;;;;;;;1.50;1.40;;;9.90;99.90;;;;;;4847412;29;20420;-75
2021/03/29 02:38:25;;;;;;;1.53;1.43;;;9.90;99.90;;;;;;4838023;29;20489;-79
2021/03/29 02:40:51;;;;;;;1.50;1.30;;;9.90;99.90;;;;;;4822726;29;20419;-81
2021/03/29 02:43:17;;;;;;;1.70;1.60;;;9.90;99.90;;;;;;4853455;29;20511;-77
2021/03/29 02:45:49;;;;;;;1.80;1.37;;;9.90;99.90;;;;;;4822442;29;20489;-78
2021/03/29 02:48:16;;;;;;;1.52;1.42;;;9.90;99.90;;;;;;4823990;29;20442;-75
2021/03/29 02:50:43;;;;;;;1.52;1.42;;;9.80;99.90;;;;;;4832404;29;20418;-75
2021/03/29 02:53:15;;;;;;;1.87;1.50;;;9.90;99.90;;;;;;4857238;29;20770;-77
2021/03/29 02:55:41;;;;;;;2.80;1.58;;;9.80;99.90;;;;;;4840635;29;20951;-77
2021/03/29 02:58:07;;;;;;;2.17;1.48;;;9.90;99.90;;;;;;4838649;29;20478;-75
2021/03/29 03:00:33;;;;;;;1.63;1.43;;;9.90;99.90;;;;;;4849393;29;20466;-77
2021/03/29 03:03:00;;;;;;;1.70;1.52;;;9.90;99.90;;;;;;4822706;29;20418;-81
2021/03/29 03:05:33;;;;;;;1.30;1.20;;;9.80;99.90;;;;;;4853110;29;20473;-81
2021/03/29 03:07:59;;;;;;;1.40;1.30;;;9.90;99.90;;;;;;4836920;29;20780;-81
2021/03/29 03:10:26;;;;;;;2.23;1.40;;;9.80;99.90;;;;;;4853937;29;20479;-77
2021/03/29 03:12:52;;;;;;;2.83;1.60;;;9.90;99.90;;;;;;4841681;29;20414;-76
2021/03/29 03:15:20;;;;;;;4.60;1.48;;;9.90;99.90;;;;;;4849560;29;20916;-75
2021/03/29 03:17:46;;;;;;;2.58;1.65;;;9.80;99.90;;;;;;4822830;29;20413;-76
2021/03/29 03:20:12;;;;;;;1.60;1.50;;;9.90;99.90;;;;;;4845384;29;20937;-78
2021/03/29 03:22:58;;;;;;;1.85;1.50;;;9.90;99.90;;;;;;4850293;29;20421;-77
2021/03/29 03:25:36;;;;;;;1.52;1.42;;;9.80;99.90;;;;;;4856107;29;20472;-78
2021/03/29 03:28:04;;;;;;;1.42;1.33;;;9.90;99.90;;;;;;4863073;29;20427;-75
2021/03/29 03:30:32;;;;;;;2.10;1.30;;;9.90;99.90;;;;;;4828345;29;20474;-76
2021/03/29 03:32:58;;;;;;;1.67;1.38;;;9.90;99.90;;;;;;4859053;29;20417;-79
2021/03/29 03:35:24;;;;;;;1.45;1.35;;;9.90;99.90;;;;;;4837392;29;20505;-78
2021/03/29 03:38:00;;;;;;;5.00;1.67;;;9.90;99.90;;;;;;4854407;29;20761;-79
2021/03/29 03:40:26;;;;;;;1.50;1.40;;;9.90;99.90;;;;;;4836520;29;20904;-76
2021/03/29 03:42:53;;;;;;;1.50;1.40;;;9.90;99.90;;;;;;4836194;29;20426;-76
2021/03/29 03:45:24;;;;;;;1.40;1.30;;;9.90;99.90;;;;;;4836717;29;20431;-77
2021/03/29 03:47:50;;;;;;;1.52;1.42;;;9.90;99.90;;;;;;4855733;29;20418;-75
2021/03/29 03:50:16;;;;;;;3.73;1.50;;;9.90;99.90;;;;;;4838505;29;20439;-76
2021/03/29 03:52:41;;;;;;;1.50;1.40;;;9.90;99.90;;;;;;4845838;29;20422;-77
2021/03/29 03:55:08;;;;;;;2.45;1.80;;;9.90;99.90;;;;;;4869894;29;20448;-75
2021/03/29 03:57:37;;;;;;;3.45;1.80;;;9.90;99.90;;;;;;4825489;29;20406;-79
2021/03/29 04:00:16;;;;;;;1.40;1.30;;;9.90;99.90;;;;;;4821784;29;21024;-79
2021/03/29 04:02:43;;;;;;;1.75;1.42;;;9.90;99.90;;;;;;4839716;29;20933;-79
2021/03/29 04:05:11;;;;;;;1.43;1.27;;;9.90;99.90;;;;;;4837386;29;20432;-73
2021/03/29 04:07:37;;;;;;;1.42;1.33;;;10.00;99.90;;;;;;4856017;29;20438;-77
2021/03/29 04:10:13;;;;;;;1.63;1.52;;;9.90;99.90;;;;;;4852580;29;20437;-76
2021/03/29 04:12:39;;;;;;;1.42;1.33;;;9.90;99.90;;;;;;4843690;29;20466;-77
2021/03/29 04:15:06;;;;;;;1.38;1.27;;;9.90;99.90;;;;;;4853758;29;20430;-81
2021/03/29 04:17:31;;;;;;;1.90;1.50;;;10.00;99.90;;;;;;4840062;29;20450;-80
2021/03/29 04:19:57;;;;;;;2.70;1.60;;;10.00;99.90;;;;;;4852561;29;20412;-80
2021/03/29 04:22:23;;;;;;;1.40;1.30;;;10.00;99.90;;;;;;4838353;29;20426;-80
2021/03/29 04:24:49;;;;;;;2.40;1.70;;;10.00;99.90;;;;;;4864915;29;20412;-79
2021/03/29 04:27:15;;;;;;;1.67;1.50;;;10.00;99.90;;;;;;4843791;29;20405;-81
2021/03/29 04:29:40;;;;;;;2.03;1.38;;;10.00;99.90;;;;;;4853419;29;20434;-80
2021/03/29 04:32:10;;;;;;;1.70;1.30;;;10.00;99.90;;;;;;4841488;29;20415;-78
2021/03/29 04:34:36;;;;;;;1.67;1.58;;;10.00;99.90;;;;;;4840705;29;20768;-73
2021/03/29 04:37:01;;;;;;;1.63;1.33;;;10.10;99.90;;;;;;4829474;29;20405;-80
2021/03/29 04:39:27;;;;;;;2.45;2.08;;;10.00;99.90;;;;;;4844575;29;20846;-74
2021/03/29 04:41:53;;;;;;;2.03;1.70;;;10.00;99.90;;;;;;4849449;29;20410;-78
2021/03/29 04:44:18;;;;;;;1.73;1.57;;;10.00;99.90;;;;;;4857491;29;20413;-80
2021/03/29 04:46:44;;;;;;;1.40;1.30;;;10.10;99.90;;;;;;4838595;29;20911;-83
2021/03/29 04:49:10;;;;;;;1.88;1.73;;;10.10;99.90;;;;;;4857364;29;20413;-75
2021/03/29 04:51:36;;;;;;;2.70;1.50;;;10.10;99.90;;;;;;4842861;29;20903;-76
2021/03/29 04:54:01;;;;;;;3.63;1.80;;;10.10;99.90;;;;;;4826724;29;20912;-74
2021/03/29 04:56:27;;;;;;;1.33;1.27;;;10.10;99.90;;;;;;4862685;29;20486;-76
2021/03/29 04:58:53;;;;;;;1.90;1.47;;;10.10;99.90;;;;;;4849834;29;20984;-78
2021/03/29 05:01:19;;;;;;;2.13;1.27;;;10.10;99.90;;;;;;4868172;29;20488;-78
2021/03/29 05:03:44;;;;;;;1.50;1.40;;;10.10;99.90;;;;;;4831213;29;20467;-75
2021/03/29 05:06:10;;;;;;;1.27;1.20;;;10.20;99.90;;;;;;4866713;29;20474;-75
2021/03/29 05:08:36;;;;;;;3.22;1.50;;;10.10;99.90;;;;;;4863278;29;20452;-78
2021/03/29 05:11:02;;;;;;;2.70;1.43;;;10.10;99.90;;;;;;4862100;29;20430;-75
2021/03/29 05:13:27;;;;;;;1.70;1.50;;;10.20;99.90;;;;;;4848700;29;20422;-76
2021/03/29 05:15:53;;;;;;;1.87;1.60;;;10.20;99.90;;;;;;4840692;29;20419;-77
2021/03/29 05:18:22;;;;;;;3.13;1.70;;;10.10;99.90;;;;;;4853315;29;20418;-80
2021/03/29 05:20:48;;;;;;;3.60;1.90;;;10.20;99.90;;;;;;4852941;29;20442;-76
2021/03/29 05:23:13;;;;;;;2.38;1.73;;;10.20;99.90;;;;;;4838570;29;20525;-76
2021/03/29 05:25:39;;;;;;;1.77;1.65;;;10.20;99.90;;;;;;4859961;29;20958;-78
2021/03/29 05:28:05;;;;;;;2.60;1.90;;;10.20;99.90;;;;;;4854609;29;20527;-78
2021/03/29 05:30:31;;;;;;;1.60;1.50;;;10.20;99.90;;;;;;4845199;29;20470;-75
2021/03/29 05:32:56;;;;;;;2.80;1.23;;;10.20;99.90;;;;;;4842909;29;20950;-73
2021/03/29 05:35:22;;;;;;;3.70;1.60;;;10.20;99.90;;;;;;4840840;29;20444;-75
2021/03/29 05:37:48;;;;;;;1.65;1.50;;;10.20;99.90;;;;;;4836929;29;20854;-74
2021/03/29 05:40:17;;;;;;;1.70;1.55;;;10.20;99.90;;;;;;4822510;29;20425;-76
2021/03/29 05:42:43;;;;;;;3.25;1.90;;;10.20;99.90;;;;;;4839705;29;20433;-77
2021/03/29 05:45:09;;;;;;;2.40;1.60;;;10.20;99.90;;;;;;4840804;29;20419;-74
2021/03/29 05:47:36;;;;;;;2.00;1.50;;;10.30;99.90;;;;;;4849540;29;20416;-76
2021/03/29 05:50:07;;;;;;;1.70;1.42;;;10.30;99.90;;;;;;4861883;29;21393;-74
2021/03/29 05:52:33;;;;;;;1.67;1.58;;;10.30;99.90;;;;;;4844601;29;20441;-80
2021/03/29 05:54:59;;;;;;;2.42;1.75;;;10.40;99.90;;;;;;4843467;29;20904;-76
2021/03/29 05:57:25;;;;;;;5.68;1.88;;;10.30;99.90;;;;;;4839542;29;20423;-81
2021/03/29 05:59:50;;;;;;;2.10;1.70;;;10.30;99.90;;;;;;4844182;29;20406;-74
2021/03/29 06:02:30;;;;;;;2.70;1.83;;;10.30;99.90;;;;;;4823144;29;20816;-77
2021/03/29 06:04:56;;;;;;;1.93;1.50;;;10.30;99.90;;;;;;4829186;29;20434;-76
2021/03/29 06:07:26;;;;;;;2.65;1.83;;;10.40;99.90;;;;;;4836965;29;20663;-81
2021/03/29 06:09:53;;;;;;;2.42;1.73;;;10.40;99.90;;;;;;4857002;29;20831;-77
2021/03/29 06:12:20;;;;;;;2.95;1.55;;;10.50;99.90;;;;;;4847472;29;20413;-76
2021/03/29 06:14:47;;;;;;;2.03;1.67;;;10.50;99.90;;;;;;4854158;29;20509;-77
2021/03/29 06:17:20;;;;;;;3.37;1.57;;;10.50;99.90;;;;;;4837611;29;20465;-77
2021/03/29 06:19:53;;;;;;;1.10;1.10;;;10.60;99.90;;;;;;4853236;29;20778;-74
2021/03/29 06:22:28;;;;;;;1.83;1.50;;;10.70;99.90;;;;;;4854171;29;20422;-76
2021/03/29 06:25:16;;;;;;;1.70;1.55;;;10.70;99.90;;;;;;4827352;29;20438;-77
2021/03/29 06:27:52;;;;;;;1.77;1.67;;;10.80;99.90;;;;;;4854597;29;20443;-76
2021/03/29 06:30:27;;;;;;;3.35;1.67;;;10.90;99.90;;;;;;4853477;29;20497;-74
2021/03/29 06:33:04;;;;;;;2.50;1.30;;;10.90;99.90;;;;;;4857420;29;20418;-76
2021/03/29 06:35:53;;;;;;;1.77;1.65;;;11.00;99.90;;;;;;4855340;29;20407;-76
2021/03/29 06:38:25;;;;;;;1.98;1.67;;;11.10;99.90;;;;;;4824358;29;20490;-78
2021/03/29 06:40:51;;;;;;;1.60;1.50;;;11.10;99.90;;;;;;4834603;29;20421;-77
2021/03/29 06:43:36;;;;;;;2.40;1.70;;;11.20;99.90;;;;;;4854526;29;20465;-76
2021/03/29 06:46:05;;;;;;;3.58;1.50;;;11.30;99.90;;;;;;4837392;29;20422;-75
2021/03/29 06:48:36;;;;;;;1.98;1.52;;;11.40;99.90;;;;;;4837283;29;20499;-78
2021/03/29 06:51:18;;;;;;;2.95;1.85;;;11.40;99.90;;;;;;4860388;29;20406;-74
2021/03/29 06:53:54;;;;;;;3.60;1.47;;;11.50;99.90;;;;;;4837274;29;20949;-75
2021/03/29 06:56:30;;;;;;;1.40;1.23;;;11.60;99.90;;;;;;4853129;29;20485;-76
2021/03/29 06:59:07;;;;;;;2.00;1.45;;;11.60;99.90;;;;;;4850042;29;20441;-83
2021/03/29 07:01:35;;;;;;;2.45;1.70;;;11.70;99.90;;;;;;4852884;29;20441;-77
2021/03/29 07:04:01;;;;;;;1.65;1.50;;;11.80;99.90;;;;;;4836820;29;21124;-79
2021/03/29 07:06:28;;;;;;;1.55;1.45;;;11.90;99.90;;;;;;4836617;29;20499;-75
2021/03/29 07:09:07;;;;;;;2.05;1.60;;;12.00;99.90;;;;;;4830406;29;20423;-75
2021/03/29 07:11:33;;;;;;;2.75;1.63;;;12.10;99.90;;;;;;4846996;29;20426;-76
2021/03/29 07:13:59;;;;;;;4.30;2.00;;;12.10;99.90;;;;;;4822443;29;20414;-75
2021/03/29 07:16:26;;;;;;;3.20;1.70;;;12.10;99.90;;;;;;4836331;29;20452;-75
2021/03/29 07:18:54;;;;;;;1.45;1.30;;;12.20;99.90;;;;;;4838597;29;20434;-76
2021/03/29 07:21:21;;;;;;;2.53;1.85;;;12.20;99.90;;;;;;4837769;29;20418;-73
2021/03/29 07:23:46;;;;;;;2.70;2.17;;;12.10;99.90;;;;;;4852937;29;20426;-77
2021/03/29 07:26:20;;;;;;;3.60;2.53;;;12.20;99.90;;;;;;4836094;29;20498;-73
2021/03/29 07:28:47;;;;;;;2.92;2.10;;;12.20;99.90;;;;;;4835520;29;20470;-78
2021/03/29 07:31:13;;;;;;;3.27;2.77;;;12.20;99.90;;;;;;4876007;29;20429;-75
2021/03/29 07:33:53;;;;;;;2.28;1.75;;;12.20;99.90;;;;;;4838678;29;20410;-74
2021/03/29 07:36:41;;;;;;;1.85;1.73;;;12.30;99.90;;;;;;4815266;29;20506;-74
2021/03/29 07:39:07;;;;;;;3.50;1.58;;;12.20;99.90;;;;;;4851756;29;21098;-76
2021/03/29 07:41:32;;;;;;;2.37;1.67;;;12.30;99.90;;;;;;4852878;29;20410;-79
2021/03/29 07:44:10;;;;;;;2.60;1.60;;;12.40;99.90;;;;;;4837651;29;20438;-74
2021/03/29 07:46:40;;;;;;;3.27;1.70;;;12.40;99.90;;;;;;4852044;29;20411;-73
2021/03/29 07:49:49;;;;;;;3.67;1.83;;;12.40;99.90;;;;;;4837077;29;20429;-75
2021/03/29 07:52:24;;;;;;;2.67;2.00;;;12.50;99.90;;;;;;4832346;29;20426;-76
2021/03/29 07:54:51;;;;;;;3.60;1.90;;;12.60;99.90;;;;;;4857506;29;20490;-76
2021/03/29 07:57:44;;;;;;;1.63;1.52;;;12.70;99.90;;;;;;4843352;29;20414;-74
2021/03/29 08:00:30;;;;;;;1.50;1.40;;;12.80;99.90;;;;;;4852971;29;20453;-76
2021/03/29 08:03:00;;;;;;;2.28;1.70;;;12.80;99.90;;;;;;4823795;29;20448;-77
2021/03/29 08:05:39;;;;;;;2.00;1.67;;;12.90;99.90;;;;;;4841929;29;20425;-74
2021/03/29 08:08:26;;;;;;;4.72;1.80;;;12.80;99.90;;;;;;4842986;29;20466;-74
2021/03/29 08:11:11;;;;;;;2.80;1.98;;;13.00;99.90;;;;;;4855101;29;20421;-75
2021/03/29 08:13:52;;;;;;;2.47;1.60;;;13.00;99.90;;;;;;4856987;29;20422;-76
2021/03/29 08:16:20;;;;;;;3.20;1.80;;;13.10;99.90;;;;;;4855432;29;20418;-75
2021/03/29 08:19:09;;;;;;;2.45;1.98;;;13.20;99.90;;;;;;4858235;29;20418;-73
2021/03/29 08:21:57;;;;;;;2.20;1.65;;;13.30;99.90;;;;;;4853735;29;20418;-73
2021/03/29 08:24:31;;;;;;;4.43;1.95;;;13.50;99.90;;;;;;4854572;29;20432;-74
2021/03/29 08:27:01;;;;;;;2.10;1.73;;;13.60;99.90;;;;;;4870665;29;20425;-74
2021/03/29 08:29:34;;;;;;;1.60;1.40;;;13.80;99.90;;;;;;4835936;29;20908;-74
2021/03/29 08:32:08;;;;;;;2.22;1.42;;;13.90;99.90;;;;;;4846834;29;20410;-75
2021/03/29 08:34:42;;;;;;;2.40;1.60;;;13.90;99.90;;;;;;4840398;29;20421;-73
2021/03/29 08:37:09;;;;;;;1.90;1.52;;;14.00;99.90;;;;;;4854391;29;20966;-75
2021/03/29 08:39:42;;;;;;;1.83;1.70;;;14.00;99.90;;;;;;4855225;29;20410;-73
2021/03/29 08:42:11;;;;;;;2.80;1.80;;;14.00;99.90;;;;;;4825099;29;20547;-75
2021/03/29 08:44:42;;;;;;;4.22;1.80;;;14.10;99.90;;;;;;4839346;29;20426;-73
2021/03/29 08:47:16;;;;;;;3.50;1.70;;;14.20;99.90;;;;;;4839793;29;20399;-73
2021/03/29 08:49:42;;;;;;;4.68;1.88;;;14.30;99.90;;;;;;4855316;29;20414;-73
2021/03/29 08:52:07;;;;;;;3.33;1.70;;;14.30;99.90;;;;;;4862919;29;20458;-72
2021/03/29 08:54:33;;;;;;;1.98;1.50;;;14.40;99.90;;;;;;4855104;29;20430;-72
2021/03/29 08:57:04;;;;;;;3.30;2.00;;;14.50;99.90;;;;;;4840502;29;20406;-73
2021/03/29 08:59:30;;;;;;;2.88;1.67;;;14.60;99.90;;;;;;4855536;29;20912;-73
2021/03/29 09:01:56;;;;;;;2.13;1.48;;;14.70;99.90;;;;;;4838349;29;20451;-73
2021/03/29 09:04:21;;;;;;;2.30;1.57;;;14.90;99.90;;;;;;4853568;29;20813;-73
2021/03/29 09:06:54;;;;;;;2.88;1.88;;;15.00;99.90;;;;;;4840247;29;20402;-73
2021/03/29 09:09:21;;;;;;;1.92;1.60;;;15.20;99.90;;;;;;4850943;29;20849;-73
2021/03/29 09:11:48;;;;;;;1.70;1.50;;;15.30;99.90;;;;;;4829930;29;20456;-73
2021/03/29 09:14:19;;;;;;;1.70;1.38;;;15.40;99.90;;;;;;4857281;29;20420;-73
2021/03/29 09:16:45;;;;;;;4.35;1.92;;;15.40;99.90;;;;;;4828594;29;20417;-73
2021/03/29 09:19:18;;;;;;;1.80;1.60;;;15.40;99.90;;;;;;4855660;29;20414;-73
2021/03/29 09:21:45;;;;;;;3.53;1.70;;;15.40;99.90;;;;;;4839621;29;20402;-73
2021/03/29 09:24:17;;;;;;;4.00;1.90;;;15.40;99.90;;;;;;4838984;29;20434;-73
2021/03/29 09:27:21;;;;;;;3.25;1.90;;;15.40;99.90;;;;;;4832453;29;20768;-73
2021/03/29 09:29:47;;;;;;;2.90;1.67;;;15.70;99.90;;;;;;4827599;29;20755;-73
2021/03/29 09:32:17;;;;;;;4.28;2.10;;;15.90;99.90;;;;;;4844525;29;20416;-73
2021/03/29 09:34:46;;;;;;;2.30;1.93;;;16.10;99.90;;;;;;4838736;29;20462;-73
2021/03/29 09:37:26;;;;;;;3.50;1.90;;;16.20;99.90;;;;;;4839447;29;20426;-73
2021/03/29 09:40:06;;;;;;;1.85;1.65;;;16.40;99.90;;;;;;4852313;29;20413;-72
2021/03/29 09:42:48;;;;;;;4.63;1.73;;;16.50;99.90;;;;;;4837492;29;20467;-72
2021/03/29 09:45:24;;;;;;;2.58;1.90;;;16.50;99.90;;;;;;4836199;29;20411;-73
2021/03/29 09:48:07;;;;;;;2.50;2.00;;;16.40;99.90;;;;;;4827071;29;20416;-74
2021/03/29 09:50:37;;;;;;;3.28;1.90;;;16.30;99.90;;;;;;4857345;29;20640;-74
2021/03/29 09:53:15;;;;;;;1.95;1.77;;;16.30;99.90;;;;;;4836509;29;20472;-73
2021/03/29 09:55:46;;;;;;;4.45;1.95;;;16.50;99.90;;;;;;4839440;29;20422;-72
2021/03/29 09:58:22;;;;;;;3.55;1.52;;;16.40;99.90;;;;;;4825809;29;20489;-73
2021/03/29 10:00:49;;;;;;;1.57;1.47;;;16.50;99.90;;;;;;4840322;29;20922;-73
2021/03/29 10:03:19;;;;;;;3.80;1.98;;;16.60;99.90;;;;;;4837607;29;20423;-74
2021/03/29 10:05:46;;;;;;;2.75;1.80;;;16.70;99.90;;;;;;4822514;29;20428;-73
2021/03/29 10:08:14;;;;;;;3.15;1.83;;;16.30;99.90;;;;;;4841509;29;20464;-73
2021/03/29 10:10:39;;;;;;;5.22;1.95;;;16.00;99.90;;;;;;4839611;29;20421;-74
2021/03/29 10:13:08;;;;;;;3.38;1.77;;;15.80;99.90;;;;;;4853190;29;20410;-73
2021/03/29 10:15:34;;;;;;;2.83;1.80;;;15.70;99.90;;;;;;4851954;29;20426;-73
2021/03/29 10:18:16;;;;;;;4.53;2.10;;;15.70;99.90;;;;;;4837651;29;20420;-73
2021/03/29 10:20:43;;;;;;;2.60;1.60;;;15.70;99.90;;;;;;4822023;29;20959;-73
2021/03/29 10:23:28;;;;;;;5.40;1.88;;;15.70;99.90;;;;;;4814877;29;20498;-73
2021/03/29 10:26:16;;;;;;;5.80;1.93;;;15.70;99.90;;;;;;4829317;29;20897;-73
2021/03/29 10:29:02;;;;;;;2.88;1.98;;;15.70;99.90;;;;;;4851137;29;20425;-73
2021/03/29 10:31:28;;;;;;;3.00;2.05;;;15.60;99.90;;;;;;4855015;29;20414;-73
2021/03/29 10:33:55;;;;;;;2.50;2.20;;;15.50;99.90;;;;;;4824872;29;20579;-73
2021/03/29 10:36:22;;;;;;;4.95;2.20;;;15.50;99.90;;;;;;4839428;29;20615;-72
2021/03/29 10:38:48;;;;;;;3.17;2.47;;;15.50;99.90;;;;;;4821892;29;21853;-73
2021/03/29 10:41:14;;;;;;;3.22;2.30;;;15.50;99.90;;;;;;4837971;29;20765;-73
2021/03/29 10:43:39;;;;;;;4.53;2.60;;;15.50;99.90;;;;;;4836815;29;20426;-74
2021/03/29 10:46:05;;;;;;;1.65;1.52;;;15.60;99.90;;;;;;4838108;29;20422;-74
2021/03/29 10:48:31;;;;;;;2.72;2.22;;;15.70;99.90;;;;;;4821605;29;20514;-72
2021/03/29 10:50:59;;;;;;;2.42;1.88;;;15.90;99.90;;;;;;4827931;29;20417;-73
2021/03/29 10:53:24;;;;;;;2.83;2.10;;;15.90;99.90;;;;;;4842691;29;20451;-73
2021/03/29 10:55:50;;;;;;;3.00;2.03;;;15.90;99.90;;;;;;4837720;29;20408;-75
2021/03/29 10:58:16;;;;;;;2.47;1.80;;;15.90;99.90;;;;;;4841691;29;20415;-75
2021/03/29 11:00:42;;;;;;;2.35;2.10;;;16.00;99.90;;;;;;4856152;29;20420;-76
2021/03/29 11:03:07;;;;;;;3.80;2.40;;;16.20;99.90;;;;;;4825623;29;20822;-75
2021/03/29 11:05:33;;;;;;;2.33;2.00;;;16.30;99.90;;;;;;4826925;29;20472;-75
2021/03/29 11:07:59;;;;;;;3.63;2.13;;;16.30;99.90;;;;;;4838100;29;20485;-76
2021/03/29 11:10:25;;;;;;;3.13;2.27;;;16.40;99.90;;;;;;4875147;29;20413;-75
2021/03/29 11:12:50;;;;;;;5.13;2.35;;;16.70;99.90;;;;;;4845141;29;20463;-75
2021/03/29 11:15:16;;;;;;;3.07;1.60;;;17.20;99.90;;;;;;4838247;29;20700;-76
2021/03/29 11:17:42;;;;;;;4.22;2.35;;;17.40;99.90;;;;;;4839099;29;20414;-75
2021/03/29 11:20:08;;;;;;;2.90;2.20;;;17.30;99.90;;;;;;4843666;29;20783;-75
2021/03/29 11:22:33;;;;;;;2.25;1.90;;;17.10;99.90;;;;;;4853884;29;20425;-74
2021/03/29 11:24:59;;;;;;;2.90;2.15;;;17.00;99.90;;;;;;4842262;29;20501;-75
2021/03/29 11:27:25;;;;;;;3.13;1.77;;;17.10;99.90;;;;;;4828485;29;20405;-74
2021/03/29 11:29:51;;;;;;;3.72;2.28;;;17.20;99.90;;;;;;4823161;29;21252;-76
2021/03/29 11:32:17;;;;;;;4.20;2.27;;;17.30;99.90;;;;;;4852282;29;20394;-75
2021/03/29 11:34:43;;;;;;;5.40;2.30;;;17.50;99.90;;;;;;4851735;29;20414;-73
2021/03/29 11:37:09;;;;;;;4.32;1.83;;;17.80;99.90;;;;;;4837253;29;20936;-73
2021/03/29 11:39:34;;;;;;;3.78;2.10;;;18.20;99.90;;;;;;4835143;29;20414;-73
2021/03/29 11:42:00;;;;;;;2.07;1.70;;;18.40;99.90;;;;;;4853525;29;20410;-75
2021/03/29 11:44:26;;;;;;;3.00;1.88;;;18.30;99.90;;;;;;4839863;29;20489;-75
2021/03/29 11:46:52;;;;;;;3.20;2.00;;;18.30;99.90;;;;;;4838022;29;20412;-75
2021/03/29 11:49:18;;;;;;;2.17;1.90;;;18.00;99.80;;;;;;4847930;29;20419;-75
2021/03/29 11:51:44;;;;;;;2.57;1.73;;;18.00;99.90;;;;;;4850379;29;20789;-75
2021/03/29 11:54:10;;;;;;;1.73;1.63;;;18.20;99.90;;;;;;4850750;29;20753;-73
2021/03/29 11:56:36;;;;;;;2.70;1.70;;;18.20;99.30;;;;;;4837589;29;20411;-73
2021/03/29 11:59:02;;;;;;;2.55;2.13;;;18.20;99.50;;;;;;4853426;29;20424;-74
2021/03/29 12:04:03;;;;;;;3.23;1.70;;;17.60;97.80;;;;;;4828575;29;20760;-76
2021/03/29 12:14:11;;;;;;;2.13;1.70;;;18.20;98.00;;;;;;4841228;29;20516;-73
2021/03/29 12:16:42;;;;;;;2.42;1.70;;;18.20;98.70;;;;;;4824746;29;20433;-73
2021/03/29 12:19:08;;;;;;;2.30;1.85;;;17.90;99.80;;;;;;4828649;29;20410;-73
2021/03/29 12:21:36;;;;;;;1.75;1.60;;;17.70;98.90;;;;;;4828254;29;20404;-74
2021/03/29 12:24:13;;;;;;;3.45;1.85;;;17.70;99.90;;;;;;4837193;29;20531;-73
2021/03/29 12:26:40;;;;;;;3.17;1.80;;;17.50;99.90;;;;;;4823966;29;20913;-74
2021/03/29 12:29:08;;;;;;;3.13;2.00;;;17.50;99.90;;;;;;4824831;29;20460;-74
2021/03/29 12:31:35;;;;;;;3.83;2.83;;;17.40;99.90;;;;;;4840770;29;20495;-74
2021/03/29 12:34:01;;;;;;;4.30;2.13;;;17.40;99.90;;;;;;4837413;29;20419;-74
2021/03/29 12:36:29;;;;;;;9.70;2.80;;;17.50;99.90;;;;;;4823063;29;20414;-74
2021/03/29 12:39:01;;;;;;;2.88;2.00;;;17.50;99.90;;;;;;4855812;29;20435;-75
2021/03/29 12:41:30;;;;;;;2.60;1.90;;;17.30;99.10;;;;;;4842499;29;20415;-74
2021/03/29 12:44:02;;;;;;;5.07;1.87;;;17.20;99.90;;;;;;4840575;29;20433;-76
2021/03/29 12:46:28;;;;;;;3.13;1.93;;;17.20;99.90;;;;;;4855481;29;20434;-74
2021/03/29 12:48:53;;;;;;;4.13;2.10;;;17.30;99.90;;;;;;4855442;29;20442;-73
2021/03/29 12:51:19;;;;;;;3.45;1.80;;;17.40;99.90;;;;;;4846244;29;20948;-75
2021/03/29 12:53:45;;;;;;;2.15;1.77;;;17.30;98.90;;;;;;4831857;29;21001;-75
2021/03/29 12:56:11;;;;;;;2.30;1.67;;;17.20;99.40;;;;;;4839208;29;20813;-73
2021/03/29 12:58:38;;;;;;;1.83;1.73;;;17.20;99.50;;;;;;4857409;29;20422;-73
2021/03/29 13:01:07;;;;;;;3.22;1.98;;;17.20;99.10;;;;;;4838498;29;20440;-74
2021/03/29 13:03:37;;;;;;;3.90;2.03;;;17.20;99.90;;;;;;4839954;29;20425;-72
2021/03/29 13:06:16;;;;;;;3.58;2.13;;;17.20;99.90;;;;;;4833755;29;20434;-73
2021/03/29 13:08:42;;;;;;;3.17;1.58;;;17.30;99.90;;;;;;4838668;29;20414;-73
2021/03/29 13:11:26;;;;;;;2.40;1.85;;;17.20;99.90;;;;;;4829261;29;20429;-74